Time;durP1;ratioP1;P1;durP2;ratioP2;P2;SDS_P1;SDS_P2;PMS_P1;PMS_P2;Temp;Humidity;BMP_temperature;BMP_pressure;BME280_temperature;BME280_humidity;BME280_pressure;Samples;Min_cycle;Max_cycle;Signal;HPM_P1;HPM_P2
2022/06/13 00:00:29;;;;;;;6.00;5.20;;;18.70;99.90;;;;;;5095821;28;20200;-73
2022/06/13 00:02:55;;;;;;;5.90;4.97;;;18.70;99.90;;;;;;5095356;28;20655;-73
2022/06/13 00:05:24;;;;;;;6.35;5.35;;;18.60;99.90;;;;;;5097097;28;20241;-71
2022/06/13 00:07:51;;;;;;;7.13;5.15;;;18.60;99.90;;;;;;5099159;28;20289;-71
2022/06/13 00:10:18;;;;;;;5.72;5.00;;;18.40;99.90;;;;;;5102423;28;20200;-71
2022/06/13 00:12:45;;;;;;;5.53;5.03;;;18.50;99.90;;;;;;5105068;28;20196;-71
2022/06/13 00:15:15;;;;;;;6.28;5.70;;;18.50;99.90;;;;;;5103574;28;20196;-72
2022/06/13 00:17:41;;;;;;;6.72;5.15;;;18.30;99.90;;;;;;5101145;28;20226;-71
2022/06/13 00:20:09;;;;;;;5.82;4.85;;;18.30;99.90;;;;;;5099320;28;20617;-71
2022/06/13 00:22:37;;;;;;;6.32;5.72;;;18.40;99.90;;;;;;5097325;28;20200;-71
2022/06/13 00:25:04;;;;;;;5.28;4.85;;;18.40;99.90;;;;;;5100671;28;20306;-71
2022/06/13 00:27:31;;;;;;;7.28;5.38;;;18.40;99.90;;;;;;5096354;28;20245;-72
2022/06/13 00:29:58;;;;;;;5.47;4.88;;;18.40;99.90;;;;;;5094894;28;20201;-72
2022/06/13 00:32:25;;;;;;;7.70;5.38;;;18.40;99.90;;;;;;5094839;28;20204;-72
2022/06/13 00:34:52;;;;;;;5.82;5.30;;;18.40;99.90;;;;;;5095136;28;20219;-76
2022/06/13 00:37:18;;;;;;;6.45;5.30;;;18.30;99.90;;;;;;5094413;28;20196;-72
2022/06/13 00:39:46;;;;;;;5.90;5.30;;;18.10;99.90;;;;;;5094099;28;20545;-72
2022/06/13 00:42:18;;;;;;;5.55;4.68;;;17.90;99.90;;;;;;5094704;28;20200;-73
2022/06/13 00:45:08;;;;;;;6.95;4.95;;;17.60;99.90;;;;;;5094706;28;20246;-73
2022/06/13 00:47:35;;;;;;;7.40;4.63;;;17.30;99.90;;;;;;5094266;28;20216;-75
2022/06/13 00:50:04;;;;;;;7.40;5.10;;;16.70;99.90;;;;;;5094677;28;20507;-73
2022/06/13 00:52:35;;;;;;;7.22;5.05;;;16.50;99.90;;;;;;5094539;28;20200;-74
2022/06/13 00:55:04;;;;;;;7.60;5.13;;;15.00;99.90;;;;;;5094419;28;20242;-72
2022/06/13 00:57:31;;;;;;;12.10;6.13;;;14.00;99.90;;;;;;5094346;28;20266;-74
2022/06/13 01:00:01;;;;;;;10.77;6.33;;;13.80;99.90;;;;;;5094206;28;20598;-73
2022/06/13 01:02:28;;;;;;;14.00;7.17;;;13.90;99.90;;;;;;5094353;28;20199;-74
2022/06/13 01:04:57;;;;;;;14.47;7.93;;;13.80;99.90;;;;;;5094345;28;20245;-73
2022/06/13 01:07:24;;;;;;;12.47;8.53;;;13.90;99.90;;;;;;5094674;28;20712;-75
2022/06/13 01:12:38;;;;;;;10.13;8.70;;;14.20;99.90;;;;;;5105800;28;20199;-76
2022/06/13 01:15:23;;;;;;;9.87;8.00;;;14.20;99.90;;;;;;5103401;28;20192;-75
2022/06/13 01:18:04;;;;;;;12.43;8.03;;;14.10;99.90;;;;;;5095570;28;20253;-75
2022/06/13 01:20:46;;;;;;;11.23;7.73;;;14.20;99.90;;;;;;5095153;28;20200;-75
2022/06/13 01:23:50;;;;;;;9.57;7.70;;;14.10;99.90;;;;;;5094546;28;20207;-75
2022/06/13 01:26:39;;;;;;;10.57;6.93;;;14.10;99.90;;;;;;5094404;28;20237;-75
2022/06/13 01:29:44;;;;;;;9.97;6.60;;;14.00;99.90;;;;;;5094201;28;20274;-74
2022/06/13 01:32:24;;;;;;;11.37;7.73;;;13.90;99.90;;;;;;5094534;28;20196;-74
2022/06/13 01:35:03;;;;;;;9.20;7.30;;;14.10;99.90;;;;;;5094252;28;20200;-74
2022/06/13 01:37:42;;;;;;;10.37;7.43;;;14.10;99.90;;;;;;5094462;28;20258;-74
2022/06/13 01:40:20;;;;;;;12.13;7.93;;;14.00;99.90;;;;;;5094341;28;20204;-73
2022/06/13 01:43:00;;;;;;;10.37;8.80;;;14.00;99.90;;;;;;5094023;28;20237;-74
2022/06/13 01:45:36;;;;;;;11.90;9.13;;;14.10;99.90;;;;;;5093857;28;20200;-73
2022/06/13 01:48:10;;;;;;;10.77;9.10;;;14.10;99.90;;;;;;5093499;28;20281;-74
2022/06/13 01:50:45;;;;;;;11.00;9.20;;;14.10;99.90;;;;;;5093912;28;20195;-73
2022/06/13 01:53:21;;;;;;;12.37;9.83;;;14.20;99.90;;;;;;5093595;28;20681;-74
2022/06/13 01:55:53;;;;;;;13.93;10.70;;;14.20;99.90;;;;;;5094008;28;20200;-73
2022/06/13 01:58:28;;;;;;;12.07;9.83;;;14.20;99.90;;;;;;5093852;28;20200;-73
2022/06/13 02:01:02;;;;;;;12.50;10.10;;;14.00;99.90;;;;;;5093845;28;20291;-73
2022/06/13 02:03:35;;;;;;;15.67;11.00;;;14.10;99.90;;;;;;5093629;28;20195;-74
2022/06/13 02:06:04;;;;;;;15.07;9.73;;;14.10;99.90;;;;;;5093358;28;20196;-73
2022/06/13 02:08:38;;;;;;;12.40;10.27;;;13.90;99.90;;;;;;5093217;28;20228;-75
2022/06/13 02:11:11;;;;;;;15.10;10.13;;;13.70;99.90;;;;;;5093230;28;20195;-73
2022/06/13 02:13:39;;;;;;;17.80;10.33;;;13.60;99.90;;;;;;5093216;28;20583;-72
2022/06/13 02:16:09;;;;;;;13.90;10.73;;;13.70;99.90;;;;;;5093643;28;20594;-73
2022/06/13 02:18:45;;;;;;;13.00;10.17;;;13.60;99.90;;;;;;5093445;28;20197;-72
2022/06/13 02:21:14;;;;;;;12.47;10.40;;;13.80;99.90;;;;;;5093434;28;20257;-73
2022/06/13 02:23:47;;;;;;;12.07;9.87;;;13.70;99.90;;;;;;5093307;28;20253;-72
2022/06/13 02:26:20;;;;;;;13.17;11.00;;;13.70;99.90;;;;;;5093385;28;20238;-72
2022/06/13 02:28:51;;;;;;;11.20;9.90;;;13.70;99.90;;;;;;5092936;28;20265;-72
2022/06/13 02:31:22;;;;;;;15.70;11.03;;;13.70;99.90;;;;;;5093218;28;20200;-72
2022/06/13 02:33:57;;;;;;;16.00;10.43;;;13.70;99.90;;;;;;5092546;28;20725;-71
2022/06/13 02:36:28;;;;;;;14.90;10.33;;;13.70;99.90;;;;;;5093212;28;20203;-72
2022/06/13 02:38:59;;;;;;;14.67;10.10;;;13.60;99.90;;;;;;5093087;28;20196;-71
2022/06/13 02:41:37;;;;;;;12.27;9.80;;;13.50;99.90;;;;;;5093133;28;20200;-71
2022/06/13 02:44:09;;;;;;;10.13;9.13;;;13.30;99.90;;;;;;5092933;28;20196;-72
2022/06/13 02:46:40;;;;;;;11.87;10.77;;;13.30;99.90;;;;;;5092671;28;20656;-71
2022/06/13 02:49:15;;;;;;;13.90;11.10;;;13.50;99.90;;;;;;5092591;28;20228;-71
2022/06/13 02:51:49;;;;;;;13.73;11.93;;;13.60;99.90;;;;;;5092946;28;20200;-70
2022/06/13 02:54:21;;;;;;;15.20;11.37;;;13.60;99.90;;;;;;5092840;28;20204;-71
2022/06/13 02:57:25;;;;;;;13.90;11.07;;;13.70;99.90;;;;;;5092728;28;20246;-71
2022/06/13 03:00:10;;;;;;;12.60;10.90;;;13.70;99.90;;;;;;5092836;28;20192;-71
2022/06/13 03:02:47;;;;;;;12.93;11.60;;;13.70;99.90;;;;;;5091653;28;20222;-71
2022/06/13 03:05:29;;;;;;;12.33;10.00;;;13.70;99.90;;;;;;5096737;28;20192;-71
2022/06/13 03:08:00;;;;;;;11.23;10.00;;;13.60;99.90;;;;;;5096609;28;20204;-71
2022/06/13 03:10:36;;;;;;;11.57;10.07;;;13.60;99.90;;;;;;5096806;28;20603;-72
2022/06/13 03:13:07;;;;;;;15.43;10.87;;;13.60;99.90;;;;;;5096965;28;20195;-72
2022/06/13 03:15:44;;;;;;;12.23;10.13;;;13.40;99.90;;;;;;5097561;28;20261;-71
2022/06/13 03:18:16;;;;;;;12.33;10.10;;;13.50;99.90;;;;;;5101480;28;20207;-71
2022/06/13 03:20:51;;;;;;;10.97;9.60;;;13.50;99.90;;;;;;5099695;28;20265;-71
2022/06/13 03:23:26;;;;;;;11.40;9.67;;;13.50;99.90;;;;;;5100628;28;20228;-70
2022/06/13 03:25:57;;;;;;;11.57;9.77;;;13.40;99.90;;;;;;5100609;28;20192;-71
2022/06/13 03:28:29;;;;;;;10.93;9.47;;;13.40;99.90;;;;;;5104558;28;20290;-71
2022/06/13 03:30:59;;;;;;;11.37;10.33;;;13.30;99.90;;;;;;5111239;28;20221;-72
2022/06/13 03:33:43;;;;;;;13.07;10.57;;;13.30;99.90;;;;;;5096185;28;20541;-71
2022/06/13 03:36:18;;;;;;;17.53;11.63;;;13.30;99.90;;;;;;5096163;28;20236;-71
2022/06/13 03:38:50;;;;;;;14.90;11.10;;;13.40;99.90;;;;;;5096132;28;20245;-72
2022/06/13 03:41:20;;;;;;;17.63;12.10;;;13.40;99.90;;;;;;5098809;28;20196;-71
2022/06/13 03:43:52;;;;;;;12.13;10.57;;;13.40;99.90;;;;;;5097267;28;20258;-71
2022/06/13 03:46:25;;;;;;;11.60;10.40;;;13.40;99.90;;;;;;5096075;28;20254;-71
2022/06/13 03:48:56;;;;;;;13.30;11.07;;;13.40;99.90;;;;;;5095552;28;20236;-71
2022/06/13 03:51:28;;;;;;;12.83;10.60;;;13.30;99.90;;;;;;5078182;28;20193;-71
2022/06/13 03:54:00;;;;;;;12.10;10.87;;;13.30;99.90;;;;;;5095908;28;20254;-72
2022/06/13 03:56:32;;;;;;;15.53;10.80;;;13.30;99.90;;;;;;5095741;28;20266;-71
2022/06/13 03:59:04;;;;;;;12.40;10.47;;;13.30;99.90;;;;;;5095668;28;20200;-71
2022/06/13 04:01:35;;;;;;;15.07;11.67;;;13.30;99.90;;;;;;5095496;28;20208;-71
2022/06/13 04:04:02;;;;;;;12.67;11.37;;;13.30;99.90;;;;;;5095740;28;20208;-71
2022/06/13 04:06:34;;;;;;;12.50;11.30;;;13.30;99.90;;;;;;5095571;28;20211;-71
2022/06/13 04:09:04;;;;;;;14.77;11.67;;;13.30;99.90;;;;;;5095415;28;20220;-71
2022/06/13 04:11:41;;;;;;;13.43;11.13;;;13.30;99.90;;;;;;5095319;28;20686;-72
2022/06/13 04:14:17;;;;;;;13.53;12.13;;;13.30;99.90;;;;;;5094895;28;20245;-71
2022/06/13 04:16:52;;;;;;;17.60;12.57;;;13.30;99.90;;;;;;5094647;28;20245;-71
2022/06/13 04:19:35;;;;;;;12.37;11.07;;;13.30;99.90;;;;;;5095328;28;20195;-71
2022/06/13 04:22:10;;;;;;;14.70;11.13;;;13.30;99.90;;;;;;5095198;28;20204;-72
2022/06/13 04:24:48;;;;;;;14.37;11.90;;;13.30;99.90;;;;;;5095474;28;20196;-73
2022/06/13 04:27:21;;;;;;;13.57;11.90;;;13.40;99.90;;;;;;5095353;28;20249;-72
2022/06/13 04:29:57;;;;;;;14.87;12.17;;;13.40;99.90;;;;;;5095921;28;20246;-73
2022/06/13 04:32:29;;;;;;;13.97;11.37;;;13.50;99.90;;;;;;5096007;28;20204;-72
2022/06/13 04:34:59;;;;;;;15.70;10.20;;;13.50;99.90;;;;;;5095136;28;20254;-72
2022/06/13 04:37:27;;;;;;;14.23;9.93;;;13.60;99.90;;;;;;5095073;28;20250;-73
2022/06/13 04:39:58;;;;;;;11.30;8.20;;;13.60;99.90;;;;;;5094811;28;20670;-73
2022/06/13 04:42:29;;;;;;;11.83;8.50;;;13.60;99.90;;;;;;5094850;28;20230;-72
2022/06/13 04:44:59;;;;;;;10.90;7.87;;;13.50;99.90;;;;;;5094787;28;20606;-73
2022/06/13 04:47:26;;;;;;;7.93;7.10;;;13.50;99.90;;;;;;5094755;28;20184;-73
2022/06/13 04:49:55;;;;;;;10.97;7.57;;;13.50;99.90;;;;;;5094834;28;20220;-73
2022/06/13 04:52:28;;;;;;;9.30;6.80;;;13.60;99.90;;;;;;5094714;28;20816;-76
2022/06/13 04:55:00;;;;;;;7.37;6.67;;;13.60;99.90;;;;;;5095018;28;20245;-75
2022/06/13 04:57:28;;;;;;;8.07;6.20;;;13.70;99.90;;;;;;5094871;28;20222;-75
2022/06/13 04:59:56;;;;;;;6.93;5.40;;;13.70;99.90;;;;;;5094816;28;20197;-76
2022/06/13 05:02:32;;;;;;;6.63;5.63;;;13.70;99.90;;;;;;5095127;28;20200;-75
2022/06/13 05:04:59;;;;;;;7.50;5.10;;;13.70;99.90;;;;;;5095077;28;20664;-75
2022/06/13 05:07:27;;;;;;;5.50;4.77;;;13.90;99.90;;;;;;5094509;28;20273;-75
2022/06/13 05:10:00;;;;;;;7.63;4.87;;;13.90;99.90;;;;;;5094684;28;20242;-75
2022/06/13 05:12:33;;;;;;;8.00;4.57;;;13.90;99.90;;;;;;5094632;28;20648;-76
2022/06/13 05:15:05;;;;;;;7.00;4.47;;;14.00;99.90;;;;;;5094311;28;20656;-75
2022/06/13 05:18:11;;;;;;;5.17;3.70;;;14.10;99.90;;;;;;5094412;28;20644;-75
2022/06/13 05:20:48;;;;;;;6.87;3.83;;;14.30;99.90;;;;;;5090525;28;20203;-75
2022/06/13 05:23:39;;;;;;;5.60;3.60;;;14.80;99.90;;;;;;5094320;28;20281;-75
2022/06/13 05:26:08;;;;;;;4.50;3.60;;;15.00;99.90;;;;;;5093667;28;20292;-75
2022/06/13 05:28:36;;;;;;;5.47;3.50;;;15.20;99.90;;;;;;5093722;28;20197;-75
2022/06/13 05:31:09;;;;;;;7.57;4.10;;;15.20;99.90;;;;;;5093708;28;20222;-75
2022/06/13 05:33:40;;;;;;;10.73;3.60;;;15.30;99.90;;;;;;5093704;28;20196;-75
2022/06/13 05:36:12;;;;;;;5.83;3.43;;;15.60;99.90;;;;;;5093901;28;20477;-74
2022/06/13 05:38:44;;;;;;;6.70;3.37;;;15.60;99.90;;;;;;5093609;28;20595;-72
2022/06/13 05:41:11;;;;;;;7.10;3.27;;;15.60;99.90;;;;;;5090776;28;20254;-72
2022/06/13 05:43:38;;;;;;;8.17;3.17;;;15.70;99.90;;;;;;5073634;28;20201;-77
2022/06/13 05:46:05;;;;;;;8.07;3.30;;;15.70;99.90;;;;;;5085334;28;20257;-73
2022/06/13 05:48:31;;;;;;;8.50;3.43;;;15.90;99.90;;;;;;5093523;28;20224;-73
2022/06/13 05:50:58;;;;;;;5.73;3.00;;;16.00;99.90;;;;;;5093478;28;20228;-74
2022/06/13 05:53:27;;;;;;;8.47;3.00;;;16.10;99.90;;;;;;5093525;28;20289;-76
2022/06/13 05:55:58;;;;;;;7.18;3.08;;;16.10;99.90;;;;;;5092930;28;20643;-73
2022/06/13 05:58:26;;;;;;;5.43;3.13;;;16.10;99.90;;;;;;5093470;28;20200;-73
2022/06/13 06:00:57;;;;;;;9.23;3.57;;;16.10;99.90;;;;;;5093234;28;20329;-73
2022/06/13 06:03:24;;;;;;;7.22;3.20;;;16.20;99.90;;;;;;5093470;28;20196;-73
2022/06/13 06:05:50;;;;;;;5.38;3.30;;;16.20;99.90;;;;;;5093321;28;20192;-73
2022/06/13 06:08:20;;;;;;;8.73;3.50;;;16.30;99.90;;;;;;5093224;28;20606;-74
2022/06/13 06:10:50;;;;;;;10.88;3.40;;;16.30;99.90;;;;;;5093329;28;20216;-73
2022/06/13 06:13:18;;;;;;;5.28;2.67;;;16.30;99.90;;;;;;5093080;28;20203;-73
2022/06/13 06:15:46;;;;;;;9.60;3.80;;;16.30;99.90;;;;;;5073104;28;20200;-73
2022/06/13 06:18:13;;;;;;;6.43;2.90;;;16.40;99.90;;;;;;5072740;28;20201;-73
2022/06/13 06:20:40;;;;;;;7.10;3.20;;;16.40;99.90;;;;;;5072809;28;20201;-73
2022/06/13 06:23:10;;;;;;;9.02;3.60;;;16.60;99.90;;;;;;5073394;28;20287;-73
2022/06/13 06:25:37;;;;;;;6.03;3.13;;;16.60;99.90;;;;;;5077560;28;20201;-74
2022/06/13 06:28:05;;;;;;;5.57;3.17;;;16.60;99.90;;;;;;5097551;28;20180;-72
2022/06/13 06:30:34;;;;;;;5.95;3.28;;;16.60;99.90;;;;;;5094254;28;20213;-72
2022/06/13 06:33:01;;;;;;;5.68;2.53;;;16.50;99.90;;;;;;5087198;28;20193;-73
2022/06/13 06:35:30;;;;;;;6.43;3.33;;;16.50;99.90;;;;;;5096814;28;20185;-73
2022/06/13 06:37:59;;;;;;;9.40;3.63;;;16.50;99.90;;;;;;5095823;28;20223;-72
2022/06/13 06:40:27;;;;;;;10.07;2.67;;;16.70;99.90;;;;;;5099748;28;20200;-72
2022/06/13 06:42:54;;;;;;;5.60;2.78;;;16.80;99.90;;;;;;5084478;28;20193;-72
2022/06/13 06:45:21;;;;;;;6.80;3.05;;;16.90;99.90;;;;;;5085312;28;20556;-72
2022/06/13 06:47:49;;;;;;;7.18;3.13;;;17.10;99.90;;;;;;5076646;28;20757;-74
2022/06/13 06:50:19;;;;;;;10.05;3.35;;;17.20;99.90;;;;;;5076272;28;20231;-73
2022/06/13 06:52:45;;;;;;;8.43;3.33;;;17.20;99.90;;;;;;5076986;28;20262;-74
2022/06/13 07:00:44;;;;;;;7.20;3.13;;;17.70;99.90;;;;;;5081475;28;20234;-73
2022/06/13 07:03:12;;;;;;;7.18;3.08;;;17.70;99.90;;;;;;5076643;28;20644;-73
2022/06/13 07:05:38;;;;;;;12.07;3.35;;;17.80;99.90;;;;;;5076635;28;20242;-73
2022/06/13 07:08:06;;;;;;;7.72;3.30;;;17.90;99.90;;;;;;5076444;28;20577;-73
2022/06/13 07:10:32;;;;;;;6.32;2.85;;;18.00;99.90;;;;;;5076110;28;20694;-73
2022/06/13 07:12:59;;;;;;;7.78;3.63;;;18.10;99.90;;;;;;5076264;28;20197;-73
2022/06/13 07:15:26;;;;;;;8.73;2.97;;;18.20;99.90;;;;;;5076502;28;20197;-73
2022/06/13 07:17:54;;;;;;;7.95;3.38;;;18.20;99.90;;;;;;5075815;28;20201;-73
2022/06/13 07:20:22;;;;;;;7.55;2.80;;;18.40;99.90;;;;;;5076256;28;20197;-73
2022/06/13 07:22:50;;;;;;;6.38;2.95;;;18.60;99.90;;;;;;5076131;28;20196;-73
2022/06/13 07:25:20;;;;;;;7.38;3.20;;;18.80;99.90;;;;;;5076011;28;20216;-73
2022/06/13 07:27:47;;;;;;;9.32;3.03;;;18.70;99.90;;;;;;5075768;28;20200;-74
2022/06/13 07:30:17;;;;;;;10.10;3.33;;;18.40;99.90;;;;;;5075946;28;20229;-74
2022/06/13 07:32:44;;;;;;;6.97;2.90;;;18.20;99.90;;;;;;5075805;28;20648;-74
2022/06/13 07:35:13;;;;;;;7.65;3.75;;;18.00;99.90;;;;;;5076057;28;20330;-74
2022/06/13 07:40:27;;;;;;;7.95;3.30;;;18.20;99.90;;;;;;5075846;28;20323;-74
2022/06/13 07:42:57;;;;;;;5.60;3.28;;;18.10;99.90;;;;;;5075750;28;20243;-74
2022/06/13 07:45:29;;;;;;;6.90;3.65;;;18.20;99.90;;;;;;5076601;28;20246;-74
2022/06/13 07:47:56;;;;;;;8.80;3.78;;;18.20;99.90;;;;;;5083853;28;20358;-74
2022/06/13 07:50:25;;;;;;;9.30;3.50;;;18.40;99.90;;;;;;5078145;28;20229;-73
2022/06/13 07:52:54;;;;;;;7.85;3.42;;;18.40;99.90;;;;;;5075861;28;20652;-73
2022/06/13 07:55:22;;;;;;;6.75;3.10;;;18.50;99.90;;;;;;5075572;28;20197;-73
2022/06/13 07:57:49;;;;;;;10.50;3.88;;;18.60;99.90;;;;;;5075426;28;20207;-74
2022/06/13 08:00:21;;;;;;;7.40;3.10;;;18.90;99.90;;;;;;5075490;28;20262;-74
2022/06/13 08:02:48;;;;;;;11.25;3.60;;;19.20;99.90;;;;;;5075469;28;20291;-73
2022/06/13 08:05:16;;;;;;;7.00;3.67;;;19.20;99.90;;;;;;5075640;28;20201;-73
2022/06/13 08:07:42;;;;;;;9.05;3.65;;;19.20;99.90;;;;;;5075443;28;20568;-74
2022/06/13 08:10:11;;;;;;;17.23;3.80;;;19.20;99.90;;;;;;5075266;28;20228;-74
2022/06/13 08:12:38;;;;;;;11.02;3.58;;;19.10;99.90;;;;;;5075075;28;20196;-73
2022/06/13 08:15:05;;;;;;;9.38;3.70;;;19.40;99.90;;;;;;5075224;28;20192;-73
2022/06/13 08:17:32;;;;;;;9.05;3.75;;;19.40;99.90;;;;;;5075002;28;20275;-73
2022/06/13 08:19:59;;;;;;;10.02;3.60;;;19.50;99.90;;;;;;5074978;28;20607;-72
2022/06/13 08:22:26;;;;;;;9.80;3.40;;;19.50;99.90;;;;;;5075184;28;20197;-73
2022/06/13 08:24:52;;;;;;;9.52;3.80;;;19.90;99.90;;;;;;5075113;28;20193;-73
2022/06/13 08:27:22;;;;;;;9.52;3.47;;;19.90;99.90;;;;;;5075007;28;20262;-72
2022/06/13 08:29:48;;;;;;;6.85;3.50;;;20.10;99.90;;;;;;5074859;28;20201;-72
2022/06/13 08:32:15;;;;;;;5.60;3.33;;;19.90;99.90;;;;;;5074896;28;20666;-73
2022/06/13 08:34:42;;;;;;;5.60;3.42;;;20.50;99.90;;;;;;5075079;28;20201;-73
2022/06/13 08:37:09;;;;;;;8.20;3.42;;;20.60;99.90;;;;;;5074810;28;20205;-73
2022/06/13 08:39:35;;;;;;;8.10;3.33;;;20.50;99.90;;;;;;5074836;28;20254;-72
2022/06/13 08:42:07;;;;;;;8.77;3.28;;;20.10;99.90;;;;;;5074613;28;20231;-73
2022/06/13 08:44:51;;;;;;;8.20;3.47;;;20.10;99.90;;;;;;5074572;28;20255;-73
2022/06/13 08:47:31;;;;;;;8.98;3.40;;;20.10;99.90;;;;;;5074515;28;20204;-72
2022/06/13 08:50:08;;;;;;;8.25;3.70;;;20.30;99.90;;;;;;5074388;28;20216;-73
2022/06/13 08:52:39;;;;;;;7.38;3.10;;;20.40;99.90;;;;;;5074445;28;20196;-72
2022/06/13 08:55:11;;;;;;;5.95;3.33;;;20.40;99.90;;;;;;5074188;28;20197;-72
2022/06/13 08:57:42;;;;;;;12.23;3.60;;;20.50;99.90;;;;;;5074439;28;20201;-73
2022/06/13 09:00:15;;;;;;;9.73;3.50;;;20.80;99.90;;;;;;5074257;28;20209;-73
2022/06/13 09:02:49;;;;;;;5.60;3.30;;;20.70;99.90;;;;;;5073554;28;20251;-72
2022/06/13 09:05:23;;;;;;;9.73;3.42;;;20.80;99.90;;;;;;5074204;28;20652;-73
2022/06/13 09:07:55;;;;;;;8.32;3.67;;;21.10;99.90;;;;;;5074206;28;20250;-73
2022/06/13 09:10:26;;;;;;;6.80;2.92;;;21.40;99.90;;;;;;5073793;28;20742;-73
2022/06/13 09:12:59;;;;;;;7.47;3.10;;;21.90;99.90;;;;;;5073876;28;20596;-73
2022/06/13 09:15:32;;;;;;;8.73;3.22;;;21.50;99.90;;;;;;5073837;28;20193;-72
2022/06/13 09:18:03;;;;;;;6.53;3.10;;;21.40;99.90;;;;;;5073583;28;20213;-72
2022/06/13 09:20:36;;;;;;;9.13;3.35;;;22.00;99.80;;;;;;5074069;28;20205;-73
2022/06/13 09:23:11;;;;;;;6.07;2.80;;;22.30;96.80;;;;;;5073906;28;20262;-72
2022/06/13 09:25:43;;;;;;;8.23;3.75;;;21.70;96.10;;;;;;5073702;28;20196;-73
2022/06/13 09:28:15;;;;;;;5.70;2.95;;;21.20;95.70;;;;;;5073536;28;20201;-73
2022/06/13 09:30:48;;;;;;;4.88;3.15;;;21.50;98.60;;;;;;5074158;28;20235;-74
2022/06/13 09:33:21;;;;;;;7.57;3.00;;;22.10;96.40;;;;;;5083643;28;20249;-73
2022/06/13 09:35:53;;;;;;;5.97;3.05;;;22.80;94.50;;;;;;5091556;28;20188;-72
2022/06/13 09:38:23;;;;;;;7.65;3.40;;;22.30;92.90;;;;;;5089369;28;20196;-72
2022/06/13 09:41:03;;;;;;;6.80;3.15;;;21.60;93.10;;;;;;5076539;28;20633;-73
2022/06/13 09:43:41;;;;;;;8.75;3.78;;;21.20;94.50;;;;;;5076173;28;20197;-73
2022/06/13 09:46:19;;;;;;;8.43;2.72;;;20.60;94.80;;;;;;5074660;28;20541;-73
2022/06/13 09:48:57;;;;;;;7.32;3.00;;;20.40;94.60;;;;;;5074101;28;20782;-73
2022/06/13 09:51:37;;;;;;;5.57;3.10;;;21.00;91.40;;;;;;5073398;28;20231;-73
2022/06/13 09:54:16;;;;;;;6.55;2.75;;;21.40;90.80;;;;;;5073470;28;20200;-73
2022/06/13 09:56:54;;;;;;;7.15;2.55;;;21.50;88.70;;;;;;5073407;28;20197;-73
2022/06/13 09:59:36;;;;;;;2.70;2.22;;;21.70;84.40;;;;;;5073594;28;20197;-73
2022/06/13 10:02:15;;;;;;;6.35;2.60;;;22.30;80.60;;;;;;5073400;28;20239;-73
2022/06/13 10:04:54;;;;;;;8.60;2.95;;;22.70;80.00;;;;;;5073025;28;20201;-73
2022/06/13 10:07:23;;;;;;;10.73;3.03;;;21.60;82.40;;;;;;5073148;28;20207;-73
2022/06/13 10:09:56;;;;;;;4.57;2.60;;;22.40;85.50;;;;;;5072665;28;20227;-73
2022/06/13 10:12:33;;;;;;;4.88;2.60;;;22.20;79.80;;;;;;5072820;28;20379;-73
2022/06/13 10:15:11;;;;;;;4.47;2.30;;;22.10;69.10;;;;;;5076969;28;20218;-72
2022/06/13 10:18:01;;;;;;;6.05;2.47;;;22.80;61.10;;;;;;5076664;28;20292;-73
2022/06/13 10:20:37;;;;;;;5.53;2.55;;;22.30;57.60;;;;;;5074043;28;20197;-73
2022/06/13 10:23:12;;;;;;;5.32;2.50;;;22.60;57.50;;;;;;5073515;28;20605;-73
2022/06/13 10:25:48;;;;;;;4.75;2.50;;;22.70;62.10;;;;;;5073010;28;20292;-74
2022/06/13 10:28:32;;;;;;;4.93;2.63;;;22.80;61.90;;;;;;5072900;28;20201;-74
2022/06/13 10:31:08;;;;;;;3.03;2.38;;;22.90;56.00;;;;;;5072656;28;20768;-73
2022/06/13 10:33:49;;;;;;;4.43;2.13;;;23.10;57.00;;;;;;5073104;28;20204;-73
2022/06/13 10:36:22;;;;;;;4.93;2.13;;;22.90;49.20;;;;;;5072900;28;20262;-74
2022/06/13 10:38:58;;;;;;;3.60;2.03;;;23.10;46.60;;;;;;5072647;28;20633;-74
2022/06/13 10:41:27;;;;;;;5.07;2.03;;;23.40;46.40;;;;;;5073137;28;20257;-74
2022/06/13 10:43:55;;;;;;;4.30;2.13;;;23.80;47.70;;;;;;5072834;28;20196;-74
2022/06/13 10:46:22;;;;;;;5.35;2.08;;;24.10;46.20;;;;;;5072748;28;20197;-74
2022/06/13 10:48:56;;;;;;;3.63;2.00;;;23.60;44.90;;;;;;5072452;28;20228;-74
2022/06/13 10:51:24;;;;;;;3.28;2.10;;;23.10;45.90;;;;;;5072656;28;20249;-74
2022/06/13 10:53:56;;;;;;;4.70;2.50;;;23.10;46.00;;;;;;5072599;28;20193;-75
2022/06/13 10:56:28;;;;;;;7.30;2.88;;;23.00;47.00;;;;;;5072967;28;20287;-74
2022/06/13 10:58:58;;;;;;;3.75;2.03;;;22.70;47.10;;;;;;5072836;28;20197;-74
2022/06/13 11:01:28;;;;;;;3.55;2.10;;;23.80;45.90;;;;;;5072738;28;20567;-74
2022/06/13 11:04:03;;;;;;;6.68;2.13;;;24.30;43.00;;;;;;5075471;28;20204;-75
2022/06/13 11:06:35;;;;;;;5.30;2.35;;;25.30;41.40;;;;;;5074822;28;20208;-74
2022/06/13 11:09:04;;;;;;;4.30;2.10;;;25.50;38.30;;;;;;5072338;28;20193;-74
2022/06/13 11:11:36;;;;;;;2.40;1.90;;;24.90;37.00;;;;;;5072492;28;20221;-75
2022/06/13 11:14:04;;;;;;;5.10;2.03;;;24.70;38.40;;;;;;5072585;28;20205;-75
2022/06/13 11:25:15;;;;;;;3.25;1.75;;;23.80;36.80;;;;;;5074374;28;20193;-74
2022/06/13 11:27:43;;;;;;;5.30;2.38;;;24.90;37.70;;;;;;5075948;28;20648;-74
2022/06/13 11:30:42;;;;;;;3.80;2.15;;;25.10;36.50;;;;;;5076081;28;20286;-74
2022/06/13 11:33:18;;;;;;;5.05;2.28;;;23.80;37.10;;;;;;5075916;28;20201;-74
2022/06/13 11:35:48;;;;;;;3.45;1.90;;;23.70;38.30;;;;;;5075323;28;20205;-74
2022/06/13 11:38:22;;;;;;;2.83;2.10;;;25.40;36.80;;;;;;5058288;28;20235;-75
2022/06/13 11:41:09;;;;;;;3.40;2.15;;;23.90;37.40;;;;;;5075772;28;20660;-74
2022/06/13 11:43:42;;;;;;;3.92;2.13;;;24.10;37.80;;;;;;5075808;28;20201;-74
2022/06/13 11:46:16;;;;;;;3.03;1.90;;;24.80;34.50;;;;;;5075591;28;20661;-74
2022/06/13 11:48:47;;;;;;;5.53;2.00;;;25.30;35.10;;;;;;5075416;28;20701;-74
2022/06/13 11:51:20;;;;;;;6.05;2.17;;;25.60;33.80;;;;;;5075689;28;20217;-74
2022/06/13 11:53:47;;;;;;;5.32;2.30;;;24.10;34.50;;;;;;5075681;28;20259;-74
2022/06/13 11:56:25;;;;;;;3.95;2.35;;;22.80;36.90;;;;;;5075541;28;20267;-74
2022/06/13 11:58:56;;;;;;;5.93;2.30;;;23.70;36.00;;;;;;5075867;28;20270;-74
2022/06/13 12:01:26;;;;;;;3.55;1.80;;;24.60;34.80;;;;;;5075728;28;20201;-74
2022/06/13 12:04:03;;;;;;;4.68;1.90;;;25.30;32.60;;;;;;5075727;28;20193;-74
2022/06/13 12:06:37;;;;;;;3.35;2.08;;;25.30;31.00;;;;;;5075279;28;20223;-74
2022/06/13 12:09:15;;;;;;;5.05;2.10;;;24.80;31.00;;;;;;5075099;28;20299;-74
2022/06/13 12:11:45;;;;;;;3.70;2.22;;;24.90;30.80;;;;;;5075372;28;20235;-74
2022/06/13 12:14:13;;;;;;;4.18;2.15;;;25.60;30.20;;;;;;5075212;28;20229;-74
2022/06/13 12:16:47;;;;;;;3.40;2.22;;;26.40;29.50;;;;;;5075142;28;20197;-74
2022/06/13 12:19:30;;;;;;;4.93;2.15;;;26.70;28.00;;;;;;5074961;28;20288;-74
2022/06/13 12:22:03;;;;;;;4.53;1.95;;;26.50;27.50;;;;;;5075379;28;20288;-74
2022/06/13 12:24:44;;;;;;;3.58;2.00;;;26.80;26.80;;;;;;5074660;28;20288;-74
2022/06/13 12:27:21;;;;;;;3.72;1.88;;;26.50;27.00;;;;;;5074918;28;20603;-75
2022/06/13 12:30:04;;;;;;;4.15;2.10;;;27.80;25.50;;;;;;5074673;28;20283;-74
2022/06/13 12:32:33;;;;;;;4.47;2.17;;;25.60;26.20;;;;;;5074927;28;20231;-74
2022/06/13 12:35:16;;;;;;;3.55;2.10;;;24.60;27.60;;;;;;5074994;28;20197;-74
2022/06/13 12:37:52;;;;;;;3.65;2.20;;;25.30;26.30;;;;;;5074609;28;20204;-74
2022/06/13 12:40:28;;;;;;;2.53;2.08;;;25.10;25.90;;;;;;5074987;28;20200;-74
2022/06/13 12:43:15;;;;;;;6.65;2.28;;;26.40;25.80;;;;;;5074837;28;20230;-74
2022/06/13 12:46:09;;;;;;;5.80;2.08;;;26.40;24.70;;;;;;5089295;28;20229;-73
2022/06/13 12:48:47;;;;;;;7.50;2.13;;;26.70;24.00;;;;;;5084071;28;20324;-74
2022/06/13 12:51:21;;;;;;;3.72;2.10;;;26.50;23.10;;;;;;5087449;28;20220;-73
2022/06/13 12:54:12;;;;;;;5.35;1.92;;;26.90;22.40;;;;;;5083414;28;20598;-74
2022/06/13 12:56:47;;;;;;;3.67;2.10;;;27.20;22.80;;;;;;5081912;28;20644;-74
2022/06/13 12:59:31;;;;;;;4.85;2.20;;;28.90;22.70;;;;;;5081528;28;20250;-73
2022/06/13 13:02:15;;;;;;;5.20;2.10;;;28.50;21.30;;;;;;5074602;28;20201;-74
2022/06/13 13:04:57;;;;;;;3.88;2.17;;;27.30;21.50;;;;;;5074111;28;20208;-74
2022/06/13 13:07:31;;;;;;;4.70;2.10;;;25.40;22.30;;;;;;5074251;28;20193;-74
2022/06/13 13:10:25;;;;;;;3.22;2.03;;;25.20;23.20;;;;;;5074067;28;20234;-74
2022/06/13 13:13:30;;;;;;;2.63;2.08;;;26.50;22.50;;;;;;5072244;28;20235;-74
2022/06/13 13:16:03;;;;;;;3.08;2.17;;;26.80;22.50;;;;;;5068568;28;20275;-74
2022/06/13 13:18:46;;;;;;;3.35;1.92;;;27.00;22.70;;;;;;5073993;28;20262;-74
2022/06/13 13:21:19;;;;;;;3.00;2.00;;;25.50;22.90;;;;;;5073824;28;20204;-74
2022/06/13 13:23:57;;;;;;;4.32;2.35;;;25.50;24.20;;;;;;5073632;28;20243;-74
2022/06/13 13:26:35;;;;;;;5.82;2.00;;;25.80;23.80;;;;;;5073575;28;20718;-74
2022/06/13 13:29:13;;;;;;;3.50;2.20;;;25.80;24.20;;;;;;5073826;28;20219;-74
2022/06/13 13:31:43;;;;;;;4.38;2.60;;;27.10;22.60;;;;;;5075609;28;20270;-74